Time;durP1;ratioP1;P1;durP2;ratioP2;P2;SDS_P1;SDS_P2;PMS_P1;PMS_P2;Temp;Humidity;BMP_temperature;BMP_pressure;BME280_temperature;BME280_humidity;BME280_pressure;Samples;Min_cycle;Max_cycle;Signal;HPM_P1;HPM_P2
2023/01/25 00:02:10;;;;;;;14.30;8.90;;;;;;;;;;105245;1260;61321;-52
2023/01/25 00:04:38;;;;;;;20.90;8.60;;;;;;;;;;104424;1261;59560;-52
2023/01/25 00:07:06;;;;;;;15.70;8.10;;;;;;;;;;104480;1264;61420;-49
2023/01/25 00:09:34;;;;;;;17.10;8.10;;;;;;;;;;105365;1251;59531;-53
2023/01/25 00:12:04;;;;;;;14.20;8.00;;;;;;;;;;105388;1251;59635;-53
2023/01/25 00:14:33;;;;;;;12.80;7.30;;;;;;;;;;105801;1249;61254;-51
2023/01/25 00:17:01;;;;;;;11.00;6.10;;;;;;;;;;105642;1251;59509;-51
2023/01/25 00:19:29;;;;;;;11.80;6.40;;;;;;;;;;105998;1253;60947;-53
2023/01/25 00:21:57;;;;;;;10.10;5.20;;;;;;;;;;105228;1253;60312;-52
2023/01/25 00:24:27;;;;;;;9.30;4.70;;;;;;;;;;105130;1251;59611;-50
2023/01/25 00:26:55;;;;;;;10.80;5.30;;;;;;;;;;105266;1257;61359;-53
2023/01/25 00:29:23;;;;;;;7.20;4.90;;;;;;;;;;107381;1250;59742;-53
2023/01/25 00:31:55;;;;;;;14.00;6.50;;;;;;;;;;105249;1253;59856;-50
2023/01/25 00:34:22;;;;;;;10.70;6.10;;;;;;;;;;105191;1251;59628;-52
2023/01/25 00:36:55;;;;;;;11.30;6.50;;;;;;;;;;105291;1251;59653;-50
2023/01/25 00:39:24;;;;;;;9.60;6.50;;;;;;;;;;105640;1250;60048;-53
2023/01/25 00:41:52;;;;;;;14.70;6.40;;;;;;;;;;105543;1257;59446;-51
2023/01/25 00:44:20;;;;;;;13.30;7.50;;;;;;;;;;106072;1253;60711;-52
2023/01/25 00:46:50;;;;;;;16.80;8.90;;;;;;;;;;107456;1251;59208;-53
2023/01/25 00:49:18;;;;;;;12.80;9.00;;;;;;;;;;105030;1251;59669;-51
2023/01/25 00:51:47;;;;;;;14.40;9.70;;;;;;;;;;105032;1251;61346;-52
2023/01/25 00:54:15;;;;;;;14.70;9.20;;;;;;;;;;104890;1251;59908;-51
2023/01/25 00:56:44;;;;;;;15.40;9.00;;;;;;;;;;105528;1255;59798;-51
2023/01/25 00:59:12;;;;;;;15.40;9.50;;;;;;;;;;105788;1253;59863;-52
2023/01/25 01:01:40;;;;;;;12.50;8.40;;;;;;;;;;105180;1251;59935;-50
2023/01/25 01:04:08;;;;;;;15.30;9.20;;;;;;;;;;104979;1251;61746;-51
2023/01/25 01:06:37;;;;;;;12.20;9.10;;;;;;;;;;105830;1250;59500;-52
2023/01/25 01:09:05;;;;;;;9.00;7.50;;;;;;;;;;105147;1251;59746;-49
2023/01/25 01:11:35;;;;;;;11.50;7.60;;;;;;;;;;105147;1256;59615;-58
2023/01/25 01:14:03;;;;;;;9.70;7.00;;;;;;;;;;105175;1250;59631;-49
2023/01/25 01:16:31;;;;;;;12.90;9.00;;;;;;;;;;105837;1250;61404;-50
2023/01/25 01:18:59;;;;;;;12.10;8.60;;;;;;;;;;105356;1253;59752;-50
2023/01/25 01:21:27;;;;;;;17.30;10.20;;;;;;;;;;109200;1250;60933;-52
2023/01/25 01:23:56;;;;;;;19.20;10.60;;;;;;;;;;109369;1251;57316;-51
2023/01/25 01:26:24;;;;;;;16.20;10.40;;;;;;;;;;106389;1250;59785;-51
2023/01/25 01:28:52;;;;;;;16.80;9.80;;;;;;;;;;105245;1249;61498;-50
2023/01/25 01:31:21;;;;;;;21.00;11.10;;;;;;;;;;109392;1250;58771;-52
2023/01/25 01:34:02;;;;;;;15.10;9.40;;;;;;;;;;109333;1250;60813;-53
2023/01/25 01:36:31;;;;;;;13.00;8.40;;;;;;;;;;109373;1251;57327;-51
2023/01/25 01:39:01;;;;;;;16.60;9.60;;;;;;;;;;106814;1250;59570;-50
2023/01/25 01:41:30;;;;;;;18.10;10.50;;;;;;;;;;105106;1251;60416;-49
2023/01/25 01:43:59;;;;;;;16.80;9.80;;;;;;;;;;105427;1256;61002;-51
2023/01/25 01:48:07;;;;;;;15.30;10.80;;;;;;;;;;101711;1289;601174;-51
2023/01/25 01:50:35;;;;;;;15.80;8.90;;;;;;;;;;104681;1264;58957;-52
2023/01/25 01:53:03;;;;;;;12.00;8.30;;;;;;;;;;104185;1264;59215;-50
2023/01/25 01:55:32;;;;;;;9.90;7.10;;;;;;;;;;104299;1267;60459;-52
2023/01/25 01:58:02;;;;;;;9.90;6.20;;;;;;;;;;104164;1269;59443;-50
2023/01/25 02:00:31;;;;;;;12.50;7.00;;;;;;;;;;104317;1263;60838;-50
2023/01/25 02:03:01;;;;;;;14.50;8.30;;;;;;;;;;104379;1265;59070;-51
2023/01/25 02:05:48;;;;;;;13.00;8.40;;;;;;;;;;104528;1266;59033;-51
2023/01/25 02:08:16;;;;;;;12.80;8.90;;;;;;;;;;105340;1267;59300;-53
2023/01/25 02:10:44;;;;;;;13.80;8.50;;;;;;;;;;104404;1269;59019;-52
2023/01/25 02:13:13;;;;;;;14.00;8.00;;;;;;;;;;104398;1265;60942;-52
2023/01/25 02:15:42;;;;;;;14.70;8.90;;;;;;;;;;104322;1266;59845;-52
2023/01/25 02:18:10;;;;;;;14.60;8.90;;;;;;;;;;105161;1265;59783;-52
2023/01/25 02:20:38;;;;;;;14.50;7.80;;;;;;;;;;105960;1265;61056;-53
2023/01/25 02:23:12;;;;;;;11.30;7.20;;;;;;;;;;104332;1266;59644;-52
2023/01/25 02:25:41;;;;;;;13.80;7.70;;;;;;;;;;107296;1264;60517;-51
2023/01/25 02:28:17;;;;;;;12.40;7.90;;;;;;;;;;104431;1262;59853;-50
2023/01/25 02:30:45;;;;;;;13.20;7.60;;;;;;;;;;104671;1276;59659;-52
2023/01/25 02:33:13;;;;;;;14.00;7.90;;;;;;;;;;105811;1262;61679;-49
2023/01/25 02:35:43;;;;;;;10.70;7.30;;;;;;;;;;104720;1268;59647;-51
2023/01/25 02:38:12;;;;;;;8.60;6.10;;;;;;;;;;105593;1260;60846;-53
2023/01/25 02:40:47;;;;;;;16.20;6.70;;;;;;;;;;104757;1260;59631;-52
2023/01/25 02:43:15;;;;;;;14.50;6.10;;;;;;;;;;105058;1260;60943;-52
2023/01/25 02:45:45;;;;;;;11.70;6.10;;;;;;;;;;105391;1253;61285;-50
2023/01/25 02:48:13;;;;;;;9.80;5.60;;;;;;;;;;105208;1251;59547;-51
2023/01/25 02:50:41;;;;;;;10.70;5.50;;;;;;;;;;105112;1256;60735;-51
2023/01/25 02:53:11;;;;;;;11.30;5.70;;;;;;;;;;105912;1254;59633;-51
2023/01/25 02:55:38;;;;;;;10.30;6.20;;;;;;;;;;105168;1253;59662;-51
2023/01/25 02:58:07;;;;;;;8.30;5.40;;;;;;;;;;107213;1256;61072;-52
2023/01/25 03:00:35;;;;;;;10.90;5.70;;;;;;;;;;105032;1251;59446;-51
2023/01/25 03:03:03;;;;;;;12.10;6.80;;;;;;;;;;105120;1257;60771;-52
2023/01/25 03:05:33;;;;;;;11.90;6.90;;;;;;;;;;105116;1257;60213;-53
2023/01/25 03:08:02;;;;;;;13.80;6.30;;;;;;;;;;106189;1256;59610;-52
2023/01/25 03:10:31;;;;;;;9.70;6.30;;;;;;;;;;105179;1251;61975;-52
2023/01/25 03:12:59;;;;;;;10.80;6.80;;;;;;;;;;105217;1251;60114;-51
2023/01/25 03:15:27;;;;;;;16.00;7.20;;;;;;;;;;105217;1251;62190;-50
2023/01/25 03:17:55;;;;;;;8.90;5.10;;;;;;;;;;109231;1251;57690;-51
2023/01/25 03:20:23;;;;;;;11.90;6.10;;;;;;;;;;109325;1251;57437;-52
2023/01/25 03:22:52;;;;;;;11.20;5.60;;;;;;;;;;109231;1256;60268;-51
2023/01/25 03:25:20;;;;;;;14.30;6.10;;;;;;;;;;106592;1251;59628;-49
2023/01/25 03:27:55;;;;;;;12.00;5.00;;;;;;;;;;109323;1251;60738;-51
2023/01/25 03:30:23;;;;;;;7.00;4.70;;;;;;;;;;109320;1251;57772;-52
2023/01/25 03:32:51;;;;;;;8.50;5.00;;;;;;;;;;109278;1251;57817;-51
2023/01/25 03:35:20;;;;;;;12.10;5.50;;;;;;;;;;109235;1251;61335;-52
2023/01/25 03:37:48;;;;;;;9.60;5.80;;;;;;;;;;109318;1251;58408;-52
2023/01/25 03:40:16;;;;;;;7.80;4.90;;;;;;;;;;109272;1251;59838;-53
2023/01/25 03:42:49;;;;;;;10.80;5.50;;;;;;;;;;109278;1251;57344;-51
2023/01/25 03:45:17;;;;;;;10.00;6.50;;;;;;;;;;109382;1251;57343;-52
2023/01/25 03:47:45;;;;;;;10.50;6.40;;;;;;;;;;109251;1251;61074;-52
2023/01/25 03:50:14;;;;;;;13.00;7.20;;;;;;;;;;109264;1251;58567;-51
2023/01/25 03:52:46;;;;;;;14.50;8.50;;;;;;;;;;106118;1251;59960;-51
2023/01/25 03:55:14;;;;;;;16.70;8.20;;;;;;;;;;104923;1251;60633;-50
2023/01/25 03:57:47;;;;;;;13.50;7.80;;;;;;;;;;105051;1257;59726;-50
2023/01/25 04:00:16;;;;;;;12.10;6.80;;;;;;;;;;107719;1251;61464;-51
2023/01/25 04:02:46;;;;;;;9.90;6.20;;;;;;;;;;105162;1251;59621;-50
2023/01/25 04:05:17;;;;;;;11.40;6.20;;;;;;;;;;105203;1251;60796;-53
2023/01/25 04:07:45;;;;;;;9.40;5.10;;;;;;;;;;104803;1254;59634;-50
2023/01/25 04:10:14;;;;;;;8.80;4.00;;;;;;;;;;106371;1251;59586;-52
2023/01/25 04:12:44;;;;;;;12.20;5.10;;;;;;;;;;105674;1251;62082;-50
2023/01/25 04:15:13;;;;;;;6.70;4.10;;;;;;;;;;105432;1251;59509;-55
2023/01/25 04:17:41;;;;;;;8.50;4.40;;;;;;;;;;105186;1251;59704;-50
2023/01/25 04:20:18;;;;;;;7.40;4.70;;;;;;;;;;105157;1254;59714;-51
2023/01/25 04:22:46;;;;;;;9.10;5.60;;;;;;;;;;104980;1254;59553;-49
2023/01/25 04:25:14;;;;;;;10.30;6.20;;;;;;;;;;105460;1251;61293;-52
2023/01/25 04:27:48;;;;;;;9.10;4.50;;;;;;;;;;105874;1254;59627;-52
2023/01/25 04:30:17;;;;;;;6.40;5.10;;;;;;;;;;104940;1252;60754;-52
2023/01/25 04:32:45;;;;;;;11.40;6.50;;;;;;;;;;106855;1251;59720;-52
2023/01/25 04:35:26;;;;;;;8.30;5.20;;;;;;;;;;105677;1251;59564;-52
2023/01/25 04:37:54;;;;;;;10.10;5.90;;;;;;;;;;105070;1251;60200;-51
2023/01/25 04:40:24;;;;;;;13.10;6.40;;;;;;;;;;105113;1253;58942;-50
2023/01/25 04:42:52;;;;;;;9.60;5.60;;;;;;;;;;104848;1254;61015;-52
2023/01/25 04:45:20;;;;;;;11.00;6.20;;;;;;;;;;108283;1254;59708;-51
2023/01/25 04:47:49;;;;;;;14.00;6.80;;;;;;;;;;105290;1254;59624;-51
2023/01/25 04:50:17;;;;;;;11.10;6.30;;;;;;;;;;106306;1251;61125;-52
2023/01/25 04:52:45;;;;;;;9.20;5.70;;;;;;;;;;108565;1250;59612;-50
2023/01/25 04:55:13;;;;;;;10.40;5.50;;;;;;;;;;106623;1251;60720;-52
2023/01/25 04:57:43;;;;;;;11.60;6.50;;;;;;;;;;105495;1251;59685;-50
2023/01/25 05:00:11;;;;;;;10.00;6.30;;;;;;;;;;105977;1251;59541;-50
2023/01/25 05:02:40;;;;;;;7.30;5.50;;;;;;;;;;105198;1254;61044;-52
2023/01/25 05:05:08;;;;;;;8.30;4.60;;;;;;;;;;105114;1253;59577;-52
2023/01/25 05:07:37;;;;;;;6.90;5.00;;;;;;;;;;109292;1251;59576;-54
2023/01/25 05:10:06;;;;;;;10.50;5.10;;;;;;;;;;106260;1254;59640;-52
2023/01/25 05:12:36;;;;;;;8.70;5.30;;;;;;;;;;105426;1251;60295;-51
2023/01/25 05:15:06;;;;;;;13.80;6.40;;;;;;;;;;105150;1251;61452;-52
2023/01/25 05:17:35;;;;;;;10.50;5.50;;;;;;;;;;105408;1254;59721;-51
2023/01/25 05:20:03;;;;;;;11.20;6.10;;;;;;;;;;105218;1252;60791;-52
2023/01/25 05:22:30;;;;;;;11.60;5.30;;;;;;;;;;105089;1254;59707;-51
2023/01/25 05:25:01;;;;;;;9.80;6.60;;;;;;;;;;106763;1254;60091;-51
2023/01/25 05:27:32;;;;;;;9.60;5.80;;;;;;;;;;109245;1249;61409;-51
2023/01/25 05:30:18;;;;;;;9.70;5.70;;;;;;;;;;109382;1251;58060;-50
2023/01/25 05:32:57;;;;;;;10.80;6.60;;;;;;;;;;105728;1251;59747;-51
2023/01/25 05:35:25;;;;;;;14.50;7.00;;;;;;;;;;109208;1251;58081;-52
2023/01/25 05:37:55;;;;;;;14.10;8.20;;;;;;;;;;108058;1251;57861;-52
2023/01/25 05:40:24;;;;;;;18.70;7.60;;;;;;;;;;105649;1251;61345;-54
2023/01/25 05:42:56;;;;;;;14.30;7.30;;;;;;;;;;107015;1249;62370;-51
2023/01/25 05:45:25;;;;;;;12.70;6.60;;;;;;;;;;109315;1249;62252;-52
2023/01/25 05:47:57;;;;;;;11.80;6.70;;;;;;;;;;109272;1250;60031;-52
2023/01/25 05:50:25;;;;;;;13.90;6.00;;;;;;;;;;105781;1254;59742;-50
2023/01/25 05:53:03;;;;;;;8.90;5.30;;;;;;;;;;109330;1250;60285;-51
2023/01/25 05:55:33;;;;;;;9.10;5.40;;;;;;;;;;109330;1251;58693;-52
2023/01/25 05:58:04;;;;;;;10.10;5.60;;;;;;;;;;105328;1251;60860;-52
2023/01/25 06:00:32;;;;;;;9.70;6.40;;;;;;;;;;106834;1250;60551;-52
2023/01/25 06:03:01;;;;;;;10.30;5.20;;;;;;;;;;109225;1251;58857;-53
2023/01/25 06:05:31;;;;;;;14.90;6.60;;;;;;;;;;109285;1251;61175;-52
2023/01/25 06:07:59;;;;;;;11.60;5.90;;;;;;;;;;109396;1250;58261;-53
2023/01/25 06:10:34;;;;;;;9.10;5.80;;;;;;;;;;109245;1251;59676;-52
2023/01/25 06:13:03;;;;;;;7.70;5.20;;;;;;;;;;109393;1249;58724;-53
2023/01/25 06:15:31;;;;;;;11.70;6.30;;;;;;;;;;109339;1249;58487;-53
2023/01/25 06:18:18;;;;;;;10.10;6.30;;;;;;;;;;109480;1251;62063;-53
2023/01/25 06:21:06;;;;;;;12.40;6.80;;;;;;;;;;109259;1249;58567;-52
2023/01/25 06:23:37;;;;;;;13.30;7.60;;;;;;;;;;109467;1251;59562;-52
2023/01/25 06:26:07;;;;;;;11.20;6.90;;;;;;;;;;105584;1254;60427;-51
2023/01/25 06:28:35;;;;;;;12.30;8.40;;;;;;;;;;109521;1250;58460;-52
2023/01/25 06:31:04;;;;;;;13.60;7.20;;;;;;;;;;109509;1250;62236;-52
2023/01/25 06:33:35;;;;;;;11.00;6.90;;;;;;;;;;109581;1250;61463;-52
2023/01/25 06:36:05;;;;;;;15.30;7.30;;;;;;;;;;109495;1250;60863;-51
2023/01/25 06:38:32;;;;;;;9.90;6.00;;;;;;;;;;109499;1251;58504;-52
2023/01/25 06:41:00;;;;;;;11.30;6.90;;;;;;;;;;106974;1250;60514;-52
2023/01/25 06:43:29;;;;;;;8.10;5.10;;;;;;;;;;105332;1251;61950;-50
2023/01/25 06:46:00;;;;;;;11.40;5.80;;;;;;;;;;105142;1251;60555;-51
2023/01/25 06:48:29;;;;;;;13.20;7.50;;;;;;;;;;106740;1253;60681;-51
2023/01/25 06:50:58;;;;;;;8.40;5.50;;;;;;;;;;105357;1253;60428;-51
2023/01/25 06:53:26;;;;;;;8.50;5.40;;;;;;;;;;106407;1250;60120;-51
2023/01/25 06:55:58;;;;;;;12.30;7.00;;;;;;;;;;105390;1249;62262;-51
2023/01/25 06:58:26;;;;;;;12.40;6.00;;;;;;;;;;105044;1254;60543;-53
2023/01/25 07:00:58;;;;;;;11.80;6.70;;;;;;;;;;109150;1249;61201;-50
2023/01/25 07:03:26;;;;;;;10.80;6.70;;;;;;;;;;105190;1251;60447;-51
2023/01/25 07:05:58;;;;;;;10.60;6.70;;;;;;;;;;105239;1249;60472;-51
2023/01/25 07:08:26;;;;;;;14.60;6.70;;;;;;;;;;105355;1251;62166;-51
2023/01/25 07:10:59;;;;;;;14.10;7.60;;;;;;;;;;106589;1253;59231;-53
2023/01/25 07:13:27;;;;;;;14.50;7.60;;;;;;;;;;104992;1251;60963;-54
2023/01/25 07:15:56;;;;;;;12.20;7.70;;;;;;;;;;105281;1253;60953;-51
2023/01/25 07:18:25;;;;;;;14.60;6.60;;;;;;;;;;105131;1253;60401;-52
2023/01/25 07:20:53;;;;;;;14.70;6.50;;;;;;;;;;105912;1253;61792;-52
2023/01/25 07:23:21;;;;;;;11.90;6.80;;;;;;;;;;106180;1254;60366;-52
2023/01/25 07:25:49;;;;;;;12.40;7.40;;;;;;;;;;105580;1250;60804;-52
2023/01/25 07:28:17;;;;;;;16.00;7.60;;;;;;;;;;105268;1250;60334;-52
2023/01/25 07:30:45;;;;;;;12.30;6.70;;;;;;;;;;105693;1250;60675;-52
2023/01/25 07:33:13;;;;;;;11.60;5.70;;;;;;;;;;105145;1254;62149;-52
2023/01/25 07:35:41;;;;;;;11.40;6.10;;;;;;;;;;105609;1251;60492;-53
2023/01/25 07:38:09;;;;;;;11.10;6.80;;;;;;;;;;105351;1251;60997;-52
2023/01/25 07:40:38;;;;;;;11.90;7.50;;;;;;;;;;105350;1249;60517;-51
2023/01/25 07:43:06;;;;;;;13.60;7.50;;;;;;;;;;105400;1253;60402;-50
2023/01/25 07:45:36;;;;;;;12.90;7.30;;;;;;;;;;105443;1250;61998;-51
2023/01/25 07:48:07;;;;;;;11.70;7.20;;;;;;;;;;106222;1250;60324;-51
2023/01/25 07:50:35;;;;;;;14.90;7.10;;;;;;;;;;105207;1254;60428;-50
2023/01/25 07:53:03;;;;;;;17.00;8.50;;;;;;;;;;105413;1250;60540;-52
2023/01/25 07:55:31;;;;;;;13.00;7.80;;;;;;;;;;105204;1253;60447;-51
2023/01/25 07:57:59;;;;;;;15.60;8.00;;;;;;;;;;105454;1249;62316;-52
2023/01/25 08:00:27;;;;;;;16.50;6.60;;;;;;;;;;105324;1250;60379;-51
2023/01/25 08:02:55;;;;;;;17.30;8.00;;;;;;;;;;105489;1254;60807;-51
2023/01/25 08:05:24;;;;;;;15.60;8.30;;;;;;;;;;105337;1249;60517;-52
2023/01/25 08:07:52;;;;;;;15.80;8.00;;;;;;;;;;105656;1251;60431;-50
2023/01/25 08:10:20;;;;;;;11.90;6.70;;;;;;;;;;105557;1250;61993;-54
2023/01/25 08:12:48;;;;;;;11.70;7.20;;;;;;;;;;105378;1253;61377;-51
2023/01/25 08:15:16;;;;;;;12.20;6.90;;;;;;;;;;105254;1253;60748;-51
2023/01/25 08:17:44;;;;;;;10.80;6.80;;;;;;;;;;105625;1254;60542;-51
2023/01/25 08:20:12;;;;;;;17.30;6.90;;;;;;;;;;105342;1251;60446;-51
2023/01/25 08:22:40;;;;;;;11.80;6.90;;;;;;;;;;105933;1251;61247;-52
2023/01/25 08:25:09;;;;;;;13.40;8.10;;;;;;;;;;105313;1253;60447;-51
2023/01/25 08:27:38;;;;;;;12.20;6.60;;;;;;;;;;106312;1253;60127;-52
2023/01/25 08:30:06;;;;;;;12.30;8.00;;;;;;;;;;105707;1250;60869;-52
2023/01/25 08:32:35;;;;;;;21.10;8.40;;;;;;;;;;105322;1251;60414;-52
2023/01/25 08:35:05;;;;;;;13.20;8.90;;;;;;;;;;106310;1251;61277;-51
2023/01/25 08:37:33;;;;;;;13.50;8.50;;;;;;;;;;105522;1250;60297;-52
2023/01/25 08:40:01;;;;;;;15.00;8.40;;;;;;;;;;105357;1251;61206;-51
2023/01/25 08:42:29;;;;;;;14.90;8.50;;;;;;;;;;105745;1251;60399;-49
2023/01/25 08:44:57;;;;;;;14.80;7.20;;;;;;;;;;105686;1251;60646;-51
2023/01/25 08:47:25;;;;;;;12.40;7.70;;;;;;;;;;105752;1254;62130;-51
2023/01/25 08:49:54;;;;;;;14.60;8.60;;;;;;;;;;105329;1251;60485;-51
2023/01/25 08:52:22;;;;;;;11.30;7.20;;;;;;;;;;106410;1253;60628;-52
2023/01/25 08:54:50;;;;;;;11.50;7.20;;;;;;;;;;107455;1250;60530;-52
2023/01/25 08:57:19;;;;;;;15.70;8.30;;;;;;;;;;105183;1250;60331;-52
2023/01/25 08:59:47;;;;;;;12.50;7.30;;;;;;;;;;109435;1250;62360;-52
2023/01/25 09:02:14;;;;;;;15.30;8.30;;;;;;;;;;109469;1250;58256;-52
2023/01/25 09:04:42;;;;;;;12.90;7.30;;;;;;;;;;109477;1250;61068;-52
2023/01/25 09:07:10;;;;;;;11.50;7.80;;;;;;;;;;109411;1250;59878;-52
2023/01/25 09:09:38;;;;;;;15.20;9.10;;;;;;;;;;109415;1250;58164;-52
2023/01/25 09:12:07;;;;;;;15.80;8.50;;;;;;;;;;109480;1250;62096;-52
2023/01/25 09:14:37;;;;;;;18.50;9.20;;;;;;;;;;109430;1249;58514;-52
2023/01/25 09:17:08;;;;;;;14.40;9.10;;;;;;;;;;109140;1250;60427;-52
2023/01/25 09:19:36;;;;;;;13.60;8.30;;;;;;;;;;109460;1251;60083;-53
2023/01/25 09:22:04;;;;;;;15.50;8.70;;;;;;;;;;109490;1249;58121;-52
2023/01/25 09:24:35;;;;;;;14.10;8.10;;;;;;;;;;109402;1250;62210;-53
2023/01/25 09:27:04;;;;;;;15.10;8.40;;;;;;;;;;109488;1249;58221;-52
2023/01/25 09:29:32;;;;;;;13.10;6.50;;;;;;;;;;109494;1250;59923;-53
2023/01/25 09:32:00;;;;;;;11.90;6.50;;;;;;;;;;106210;1253;60440;-51
2023/01/25 09:34:32;;;;;;;17.00;7.20;;;;;;;;;;109485;1249;58351;-52
2023/01/25 09:37:00;;;;;;;10.60;6.40;;;;;;;;;;109439;1250;62165;-53
2023/01/25 09:39:28;;;;;;;10.70;7.10;;;;;;;;;;109517;1250;59273;-52
2023/01/25 09:42:12;;;;;;;14.70;8.90;;;;;;;;;;108108;1250;60546;-52
2023/01/25 09:44:59;;;;;;;16.70;9.40;;;;;;;;;;106068;1251;60450;-52
2023/01/25 09:47:33;;;;;;;17.00;8.80;;;;;;;;;;105093;1251;60527;-51
2023/01/25 09:50:21;;;;;;;14.00;8.40;;;;;;;;;;105013;1249;62181;-52
2023/01/25 09:52:58;;;;;;;16.00;9.20;;;;;;;;;;104985;1253;61829;-52
2023/01/25 09:55:26;;;;;;;18.80;10.40;;;;;;;;;;109466;1250;60764;-52
2023/01/25 09:57:55;;;;;;;19.80;9.80;;;;;;;;;;106089;1251;60405;-52
2023/01/25 10:00:25;;;;;;;15.70;10.20;;;;;;;;;;104923;1251;60415;-51
2023/01/25 10:05:19;;;;;;;17.10;9.90;;;;;;;;;;104043;1288;600328;-78
2023/01/25 10:07:56;;;;;;;16.80;10.50;;;;;;;;;;103881;1276;59183;-52
2023/01/25 10:10:32;;;;;;;20.00;10.30;;;;;;;;;;104516;1270;59216;-51
2023/01/25 10:13:01;;;;;;;19.60;11.10;;;;;;;;;;103954;1271;59581;-50
2023/01/25 10:15:34;;;;;;;19.50;11.00;;;;;;;;;;104093;1273;59071;-51
2023/01/25 10:18:02;;;;;;;11.60;8.40;;;;;;;;;;104168;1270;190099;-53
2023/01/25 10:20:36;;;;;;;17.30;9.10;;;;;;;;;;104682;1267;59040;-52
2023/01/25 10:23:13;;;;;;;15.40;9.70;;;;;;;;;;104485;1272;59052;-53
2023/01/25 10:25:43;;;;;;;13.10;8.10;;;;;;;;;;105085;1267;60061;-51
2023/01/25 10:28:17;;;;;;;15.30;8.70;;;;;;;;;;103965;1270;59713;-52
2023/01/25 10:30:57;;;;;;;12.80;7.90;;;;;;;;;;108262;1267;62007;-52
2023/01/25 10:33:26;;;;;;;14.20;8.30;;;;;;;;;;105309;1272;59724;-52
2023/01/25 10:35:54;;;;;;;16.50;9.00;;;;;;;;;;105036;1270;59659;-51
2023/01/25 10:38:28;;;;;;;14.40;8.50;;;;;;;;;;104652;1271;61349;-50
2023/01/25 10:40:59;;;;;;;13.90;8.10;;;;;;;;;;104651;1270;59765;-53
2023/01/25 10:43:27;;;;;;;13.20;8.90;;;;;;;;;;104563;1272;61349;-53
2023/01/25 10:45:55;;;;;;;16.20;10.20;;;;;;;;;;105486;1267;59801;-52
2023/01/25 10:48:28;;;;;;;15.70;8.20;;;;;;;;;;104078;1269;59650;-56
2023/01/25 10:50:56;;;;;;;15.80;10.20;;;;;;;;;;107031;1268;61751;-51
2023/01/25 10:53:31;;;;;;;20.40;10.90;;;;;;;;;;104414;1267;59686;-51
2023/01/25 10:56:05;;;;;;;14.90;9.60;;;;;;;;;;108357;1264;59652;-53
2023/01/25 10:58:36;;;;;;;19.00;10.20;;;;;;;;;;106226;1264;59695;-52
2023/01/25 11:01:05;;;;;;;17.60;9.10;;;;;;;;;;106315;1267;57800;-52
2023/01/25 11:03:36;;;;;;;17.50;9.00;;;;;;;;;;104835;1267;61055;-52
2023/01/25 11:06:05;;;;;;;12.40;7.60;;;;;;;;;;104493;1267;59739;-51
2023/01/25 11:08:34;;;;;;;15.20;8.60;;;;;;;;;;104893;1265;60858;-51
2023/01/25 11:11:13;;;;;;;15.50;8.90;;;;;;;;;;104252;1267;59645;-53
2023/01/25 11:13:41;;;;;;;14.90;9.90;;;;;;;;;;104358;1267;59039;-52
2023/01/25 11:16:19;;;;;;;13.30;9.50;;;;;;;;;;106184;1267;61105;-52
2023/01/25 11:18:51;;;;;;;11.70;8.00;;;;;;;;;;105672;1269;59666;-54
2023/01/25 11:21:22;;;;;;;11.90;7.70;;;;;;;;;;104609;1265;60828;-52
2023/01/25 11:24:03;;;;;;;17.10;10.50;;;;;;;;;;104741;1271;59749;-52
2023/01/25 11:26:32;;;;;;;21.80;11.90;;;;;;;;;;108135;1264;59072;-51
2023/01/25 11:29:12;;;;;;;14.90;8.60;;;;;;;;;;108274;1270;61071;-52
2023/01/25 11:31:44;;;;;;;17.40;10.30;;;;;;;;;;108427;1268;57662;-53
2023/01/25 11:34:13;;;;;;;13.50;9.20;;;;;;;;;;108393;1265;59754;-53
2023/01/25 11:36:48;;;;;;;12.80;8.80;;;;;;;;;;108439;1266;57573;-53
2023/01/25 11:39:22;;;;;;;15.50;9.20;;;;;;;;;;108410;1266;57429;-53
2023/01/25 11:41:50;;;;;;;14.10;8.70;;;;;;;;;;105365;1269;61474;-52
2023/01/25 11:44:36;;;;;;;13.60;8.40;;;;;;;;;;108339;1265;57879;-52
2023/01/25 11:47:04;;;;;;;15.30;9.10;;;;;;;;;;108487;1266;61114;-54
2023/01/25 11:49:35;;;;;;;10.70;7.40;;;;;;;;;;108515;1264;57679;-53
2023/01/25 11:52:08;;;;;;;14.90;8.40;;;;;;;;;;108490;1267;57769;-52
2023/01/25 11:54:42;;;;;;;15.30;9.10;;;;;;;;;;108202;1266;60220;-52
2023/01/25 11:57:13;;;;;;;15.30;9.10;;;;;;;;;;108493;1265;57846;-53
2023/01/25 12:00:10;;;;;;;13.20;9.40;;;;;;;;;;108356;1267;59985;-54
2023/01/25 12:02:59;;;;;;;16.00;9.30;;;;;;;;;;107856;1271;58652;-53
2023/01/25 12:05:42;;;;;;;16.30;9.80;;;;;;;;;;108047;1266;57607;-52
2023/01/25 12:08:15;;;;;;;13.50;9.20;;;;;;;;;;108505;1265;60386;-54
2023/01/25 12:10:45;;;;;;;14.70;9.90;;;;;;;;;;108370;1265;58252;-54
2023/01/25 12:13:13;;;;;;;17.00;10.00;;;;;;;;;;108310;1264;62036;-52
2023/01/25 12:15:44;;;;;;;15.00;10.50;;;;;;;;;;105789;1265;59652;-54
2023/01/25 12:18:17;;;;;;;16.90;11.10;;;;;;;;;;104236;1268;60776;-53
2023/01/25 12:20:47;;;;;;;14.60;8.90;;;;;;;;;;104385;1266;60540;-54
2023/01/25 12:23:35;;;;;;;14.90;9.60;;;;;;;;;;104206;1270;59765;-52
2023/01/25 12:26:10;;;;;;;12.30;7.20;;;;;;;;;;104245;1264;61082;-54
2023/01/25 12:28:41;;;;;;;7.50;5.60;;;;;;;;;;106628;1267;63002;-51
2023/01/25 12:31:15;;;;;;;12.10;6.40;;;;;;;;;;104618;1266;60281;-52
2023/01/25 12:33:56;;;;;;;12.60;7.00;;;;;;;;;;108237;1266;60795;-51
2023/01/25 12:36:31;;;;;;;11.30;7.80;;;;;;;;;;104408;1266;59566;-52
2023/01/25 12:38:59;;;;;;;10.50;6.20;;;;;;;;;;106901;1265;60603;-52
2023/01/25 12:41:32;;;;;;;12.30;7.20;;;;;;;;;;104567;1267;59749;-51
2023/01/25 12:44:07;;;;;;;15.40;9.00;;;;;;;;;;104601;1265;59502;-51
2023/01/25 12:46:40;;;;;;;15.90;8.80;;;;;;;;;;104554;1267;61565;-51
2023/01/25 12:49:18;;;;;;;14.80;8.80;;;;;;;;;;104485;1270;59603;-52
2023/01/25 12:51:46;;;;;;;13.00;9.20;;;;;;;;;;104728;1268;61198;-53
2023/01/25 12:54:16;;;;;;;14.90;8.80;;;;;;;;;;104306;1265;60258;-52
2023/01/25 12:57:03;;;;;;;12.90;8.10;;;;;;;;;;104478;1267;59666;-52
2023/01/25 12:59:34;;;;;;;13.10;7.90;;;;;;;;;;105032;1270;61272;-50
2023/01/25 13:02:20;;;;;;;13.60;7.80;;;;;;;;;;103927;1267;59676;-51
2023/01/25 13:04:53;;;;;;;15.60;8.80;;;;;;;;;;103855;1269;60535;-53
2023/01/25 13:07:27;;;;;;;10.50;7.30;;;;;;;;;;105081;1261;59634;-52
2023/01/25 13:10:13;;;;;;;12.50;7.40;;;;;;;;;;104327;1260;59865;-52
2023/01/25 13:12:54;;;;;;;12.40;7.80;;;;;;;;;;104431;1260;60207;-52
2023/01/25 13:15:36;;;;;;;10.20;6.20;;;;;;;;;;104723;1258;59660;-52
2023/01/25 13:18:24;;;;;;;10.90;7.00;;;;;;;;;;105100;1257;60541;-52
2023/01/25 13:21:07;;;;;;;13.60;7.80;;;;;;;;;;105352;1257;59794;-52
2023/01/25 13:23:49;;;;;;;13.30;9.10;;;;;;;;;;105067;1260;59694;-53
2023/01/25 13:26:20;;;;;;;12.80;8.80;;;;;;;;;;104938;1260;60570;-53
2023/01/25 13:28:48;;;;;;;15.50;9.60;;;;;;;;;;107622;1258;59770;-54
2023/01/25 14:35:30;;;;;;;13.10;9.40;;;;;;;-2.35;90.51;102694.23;102957;1282;612445;-44
2023/01/25 14:38:49;;;;;;;15.10;8.00;;;;;;;-2.17;92.43;102588.85;103957;1267;137170;-46
2023/01/25 14:41:32;;;;;;;11.80;7.80;;;;;;;-2.12;93.39;102538.05;104233;1271;59559;-43
2023/01/25 14:44:01;;;;;;;12.50;8.90;;;;;;;-2.09;93.92;102512.00;104655;1267;72208;-48
2023/01/25 14:46:33;;;;;;;20.60;15.10;;;;;;;-2.06;94.23;102497.35;104480;1270;66976;-46
2023/01/25 14:49:07;;;;;;;14.80;11.00;;;;;;;-2.02;94.33;102491.38;104374;1270;73680;-46
2023/01/25 14:51:40;;;;;;;13.30;9.20;;;;;;;-2.00;94.22;102490.77;105199;1269;59331;-47
2023/01/25 14:54:14;;;;;;;13.70;8.80;;;;;;;-1.99;94.16;102491.02;105500;1263;61135;-47
2023/01/25 14:56:50;;;;;;;15.80;8.10;;;;;;;-1.99;94.08;102498.23;105650;1258;71583;-47
2023/01/25 14:59:29;;;;;;;17.30;9.00;;;;;;;-1.99;93.98;102498.57;106066;1257;68394;-47
2023/01/25 15:02:00;;;;;;;13.40;8.20;;;;;;;-2.02;93.89;102498.96;105855;1258;73143;-47
2023/01/25 15:04:28;;;;;;;13.50;8.80;;;;;;;-2.04;93.99;102499.05;105258;1257;59692;-47
2023/01/25 15:06:56;;;;;;;16.40;9.20;;;;;;;-2.06;94.07;102487.16;105580;1261;59848;-45
2023/01/25 15:09:38;;;;;;;11.20;7.90;;;;;;;-2.08;93.92;102496.23;105666;1260;72214;-48
2023/01/25 15:12:15;;;;;;;18.00;8.90;;;;;;;-2.12;94.00;102491.45;105566;1257;68175;-45
2023/01/25 15:14:48;;;;;;;14.20;7.70;;;;;;;-2.14;93.96;102494.51;108878;1257;71692;-47
2023/01/25 15:17:39;;;;;;;12.80;7.40;;;;;;;-2.14;94.03;102492.27;107679;1257;60704;-48
2023/01/25 15:20:29;;;;;;;15.10;7.80;;;;;;;-2.10;93.67;102508.95;108887;1257;60142;-46
2023/01/25 15:23:19;;;;;;;14.60;7.40;;;;;;;-2.06;93.55;102509.32;108913;1257;73063;-46
2023/01/25 15:25:52;;;;;;;13.80;8.20;;;;;;;-2.05;93.48;102508.70;108952;1256;66439;-46
2023/01/25 15:28:21;;;;;;;15.50;8.60;;;;;;;-2.03;93.72;102498.19;108804;1257;71699;-46
2023/01/25 15:30:49;;;;;;;18.50;9.00;;;;;;;-2.01;93.82;102488.81;108924;1257;57316;-46
2023/01/25 15:33:22;;;;;;;13.80;8.80;;;;;;;-1.97;93.84;102487.41;108923;1257;59138;-46